sensor_id;sensor_type;location;lat;lon;timestamp;temperature;humidity
40291;DHT22;26000;48.304;13.626;2022-09-09T00:04:16;15.20;99.90
40291;DHT22;26000;48.304;13.626;2022-09-09T00:09:50;15.30;99.90
40291;DHT22;26000;48.304;13.626;2022-09-09T00:12:32;15.20;99.90
40291;DHT22;26000;48.304;13.626;2022-09-09T00:15:00;15.20;99.90
40291;DHT22;26000;48.304;13.626;2022-09-09T00:17:38;15.20;99.90
40291;DHT22;26000;48.304;13.626;2022-09-09T00:22:41;15.20;99.90
40291;DHT22;26000;48.304;13.626;2022-09-09T00:25:17;15.20;99.90
40291;DHT22;26000;48.304;13.626;2022-09-09T00:27:47;15.20;99.90
40291;DHT22;26000;48.304;13.626;2022-09-09T00:30:22;15.10;99.90
40291;DHT22;26000;48.304;13.626;2022-09-09T00:32:53;15.20;99.90
40291;DHT22;26000;48.304;13.626;2022-09-09T00:35:36;15.10;99.90
40291;DHT22;26000;48.304;13.626;2022-09-09T00:41:22;15.10;99.90
40291;DHT22;26000;48.304;13.626;2022-09-09T00:55:34;15.20;99.90
40291;DHT22;26000;48.304;13.626;2022-09-09T00:58:02;15.30;99.90
40291;DHT22;26000;48.304;13.626;2022-09-09T01:00:44;15.10;99.90
40291;DHT22;26000;48.304;13.626;2022-09-09T01:05:53;15.00;99.90
40291;DHT22;26000;48.304;13.626;2022-09-09T01:08:43;15.00;99.90
40291;DHT22;26000;48.304;13.626;2022-09-09T01:14:20;15.00;99.90
40291;DHT22;26000;48.304;13.626;2022-09-09T01:16:50;15.00;99.90
40291;DHT22;26000;48.304;13.626;2022-09-09T01:19:36;15.00;99.90
40291;DHT22;26000;48.304;13.626;2022-09-09T01:22:26;15.00;99.90
40291;DHT22;26000;48.304;13.626;2022-09-09T01:28:04;15.10;99.90
40291;DHT22;26000;48.304;13.626;2022-09-09T01:30:38;15.00;99.90
40291;DHT22;26000;48.304;13.626;2022-09-09T01:33:04;15.00;99.90
40291;DHT22;26000;48.304;13.626;2022-09-09T01:35:40;15.00;99.90
40291;DHT22;26000;48.304;13.626;2022-09-09T01:38:07;15.00;99.90
40291;DHT22;26000;48.304;13.626;2022-09-09T01:40:33;15.00;99.90
40291;DHT22;26000;48.304;13.626;2022-09-09T01:42:58;15.00;99.90
40291;DHT22;26000;48.304;13.626;2022-09-09T01:45:24;15.00;99.90
40291;DHT22;26000;48.304;13.626;2022-09-09T01:47:52;15.00;99.90
40291;DHT22;26000;48.304;13.626;2022-09-09T01:50:18;14.90;99.90
40291;DHT22;26000;48.304;13.626;2022-09-09T01:52:46;15.00;99.90
40291;DHT22;26000;48.304;13.626;2022-09-09T01:55:13;15.00;99.90
40291;DHT22;26000;48.304;13.626;2022-09-09T01:57:41;15.00;99.90
40291;DHT22;26000;48.304;13.626;2022-09-09T02:05:39;15.00;99.90
40291;DHT22;26000;48.304;13.626;2022-09-09T02:08:14;14.90;99.90
40291;DHT22;26000;48.304;13.626;2022-09-09T02:10:46;14.90;99.90
40291;DHT22;26000;48.304;13.626;2022-09-09T02:13:17;14.90;99.90
40291;DHT22;26000;48.304;13.626;2022-09-09T02:19:13;14.90;99.90
40291;DHT22;26000;48.304;13.626;2022-09-09T02:21:31;14.80;99.90
40291;DHT22;26000;48.304;13.626;2022-09-09T02:23:59;14.90;99.90
40291;DHT22;26000;48.304;13.626;2022-09-09T02:26:26;14.80;99.90
40291;DHT22;26000;48.304;13.626;2022-09-09T02:28:55;14.80;99.90
40291;DHT22;26000;48.304;13.626;2022-09-09T02:31:23;14.80;99.90
40291;DHT22;26000;48.304;13.626;2022-09-09T02:33:57;14.80;99.90
40291;DHT22;26000;48.304;13.626;2022-09-09T02:36:26;14.70;99.90
40291;DHT22;26000;48.304;13.626;2022-09-09T02:38:52;14.70;99.90
40291;DHT22;26000;48.304;13.626;2022-09-09T02:41:36;14.70;99.90
40291;DHT22;26000;48.304;13.626;2022-09-09T02:44:08;14.70;99.90
40291;DHT22;26000;48.304;13.626;2022-09-09T02:49:21;14.70;99.90
40291;DHT22;26000;48.304;13.626;2022-09-09T02:52:05;14.70;99.90
40291;DHT22;26000;48.304;13.626;2022-09-09T02:54:33;14.70;99.90
40291;DHT22;26000;48.304;13.626;2022-09-09T02:57:16;14.70;99.90
40291;DHT22;26000;48.304;13.626;2022-09-09T02:59:44;14.70;99.90
40291;DHT22;26000;48.304;13.626;2022-09-09T03:02:09;14.70;99.90
40291;DHT22;26000;48.304;13.626;2022-09-09T03:04:37;14.70;99.90
40291;DHT22;26000;48.304;13.626;2022-09-09T03:07:02;14.60;99.90
40291;DHT22;26000;48.304;13.626;2022-09-09T03:09:29;14.60;99.90
40291;DHT22;26000;48.304;13.626;2022-09-09T03:11:55;14.60;99.90
40291;DHT22;26000;48.304;13.626;2022-09-09T03:14:21;14.60;99.90
40291;DHT22;26000;48.304;13.626;2022-09-09T03:16:53;14.60;99.90
40291;DHT22;26000;48.304;13.626;2022-09-09T03:19:19;14.70;99.90
40291;DHT22;26000;48.304;13.626;2022-09-09T03:21:46;14.60;99.90
40291;DHT22;26000;48.304;13.626;2022-09-09T03:24:13;14.70;99.90
40291;DHT22;26000;48.304;13.626;2022-09-09T03:26:39;14.70;99.90
40291;DHT22;26000;48.304;13.626;2022-09-09T03:29:06;14.70;99.90
40291;DHT22;26000;48.304;13.626;2022-09-09T03:31:33;14.70;99.90
40291;DHT22;26000;48.304;13.626;2022-09-09T03:33:59;14.60;99.90
40291;DHT22;26000;48.304;13.626;2022-09-09T03:36:26;14.60;99.90
40291;DHT22;26000;48.304;13.626;2022-09-09T03:38:52;14.60;99.90
40291;DHT22;26000;48.304;13.626;2022-09-09T03:41:19;14.60;99.90
40291;DHT22;26000;48.304;13.626;2022-09-09T03:43:45;14.60;99.90
40291;DHT22;26000;48.304;13.626;2022-09-09T03:46:10;14.70;99.90
40291;DHT22;26000;48.304;13.626;2022-09-09T03:48:36;14.70;99.90
40291;DHT22;26000;48.304;13.626;2022-09-09T03:51:02;14.60;99.90
40291;DHT22;26000;48.304;13.626;2022-09-09T03:53:28;14.60;99.90
40291;DHT22;26000;48.304;13.626;2022-09-09T03:55:56;14.70;99.90
40291;DHT22;26000;48.304;13.626;2022-09-09T03:58:25;14.60;99.90
40291;DHT22;26000;48.304;13.626;2022-09-09T04:01:00;14.60;99.90
40291;DHT22;26000;48.304;13.626;2022-09-09T04:03:27;14.70;99.90
40291;DHT22;26000;48.304;13.626;2022-09-09T04:05:53;14.60;99.90
40291;DHT22;26000;48.304;13.626;2022-09-09T04:08:20;14.60;99.90
40291;DHT22;26000;48.304;13.626;2022-09-09T04:10:47;14.50;99.90
40291;DHT22;26000;48.304;13.626;2022-09-09T04:13:14;14.60;99.90
40291;DHT22;26000;48.304;13.626;2022-09-09T04:15:41;14.60;99.90
40291;DHT22;26000;48.304;13.626;2022-09-09T04:18:07;14.50;99.90
40291;DHT22;26000;48.304;13.626;2022-09-09T04:20:33;14.50;99.90
40291;DHT22;26000;48.304;13.626;2022-09-09T04:22:59;14.50;99.90
40291;DHT22;26000;48.304;13.626;2022-09-09T04:25:25;14.50;99.90
40291;DHT22;26000;48.304;13.626;2022-09-09T04:27:55;14.50;99.90
40291;DHT22;26000;48.304;13.626;2022-09-09T04:30:20;14.60;99.90
40291;DHT22;26000;48.304;13.626;2022-09-09T04:32:46;14.60;99.90
40291;DHT22;26000;48.304;13.626;2022-09-09T04:35:12;14.70;99.90
40291;DHT22;26000;48.304;13.626;2022-09-09T04:37:38;14.70;99.90
40291;DHT22;26000;48.304;13.626;2022-09-09T04:40:03;14.70;99.90
40291;DHT22;26000;48.304;13.626;2022-09-09T04:42:30;14.70;99.90
40291;DHT22;26000;48.304;13.626;2022-09-09T04:44:55;14.70;99.90
40291;DHT22;26000;48.304;13.626;2022-09-09T04:47:21;14.70;99.90
40291;DHT22;26000;48.304;13.626;2022-09-09T04:49:46;14.70;99.90
40291;DHT22;26000;48.304;13.626;2022-09-09T04:52:13;14.70;99.90
40291;DHT22;26000;48.304;13.626;2022-09-09T04:54:38;14.70;99.90
40291;DHT22;26000;48.304;13.626;2022-09-09T04:57:04;14.70;99.90
40291;DHT22;26000;48.304;13.626;2022-09-09T04:59:30;14.70;99.90
40291;DHT22;26000;48.304;13.626;2022-09-09T05:01:56;14.70;99.90
40291;DHT22;26000;48.304;13.626;2022-09-09T05:04:21;14.70;99.90
40291;DHT22;26000;48.304;13.626;2022-09-09T05:06:47;14.70;99.90
40291;DHT22;26000;48.304;13.626;2022-09-09T05:09:13;14.70;99.90
40291;DHT22;26000;48.304;13.626;2022-09-09T05:11:39;14.70;99.90
40291;DHT22;26000;48.304;13.626;2022-09-09T05:14:04;14.70;99.90
40291;DHT22;26000;48.304;13.626;2022-09-09T05:16:30;14.80;99.90
40291;DHT22;26000;48.304;13.626;2022-09-09T05:18:56;14.70;99.90
40291;DHT22;26000;48.304;13.626;2022-09-09T05:21:23;14.70;99.90
40291;DHT22;26000;48.304;13.626;2022-09-09T05:23:52;14.80;99.90
40291;DHT22;26000;48.304;13.626;2022-09-09T05:26:19;14.80;99.90
40291;DHT22;26000;48.304;13.626;2022-09-09T05:28:46;14.80;99.90
40291;DHT22;26000;48.304;13.626;2022-09-09T05:31:13;14.80;99.90
40291;DHT22;26000;48.304;13.626;2022-09-09T05:33:41;14.80;99.90
40291;DHT22;26000;48.304;13.626;2022-09-09T05:36:15;14.80;99.90
40291;DHT22;26000;48.304;13.626;2022-09-09T05:38:42;14.80;99.90
40291;DHT22;26000;48.304;13.626;2022-09-09T05:41:08;14.90;99.90
40291;DHT22;26000;48.304;13.626;2022-09-09T05:43:35;15.00;99.90
40291;DHT22;26000;48.304;13.626;2022-09-09T05:46:09;15.00;99.90
40291;DHT22;26000;48.304;13.626;2022-09-09T05:48:37;15.10;99.90
40291;DHT22;26000;48.304;13.626;2022-09-09T05:51:04;15.10;99.90
40291;DHT22;26000;48.304;13.626;2022-09-09T05:53:30;15.00;99.90
40291;DHT22;26000;48.304;13.626;2022-09-09T05:56:04;15.00;99.90
40291;DHT22;26000;48.304;13.626;2022-09-09T05:58:34;15.00;99.90
40291;DHT22;26000;48.304;13.626;2022-09-09T06:01:07;15.00;99.90
40291;DHT22;26000;48.304;13.626;2022-09-09T06:03:39;14.90;99.90
40291;DHT22;26000;48.304;13.626;2022-09-09T06:06:07;14.90;99.90
40291;DHT22;26000;48.304;13.626;2022-09-09T06:08:34;14.90;99.90
40291;DHT22;26000;48.304;13.626;2022-09-09T06:11:13;14.90;99.90
40291;DHT22;26000;48.304;13.626;2022-09-09T06:13:39;14.90;99.90
40291;DHT22;26000;48.304;13.626;2022-09-09T06:16:12;15.00;99.90
40291;DHT22;26000;48.304;13.626;2022-09-09T06:18:39;14.90;99.90
40291;DHT22;26000;48.304;13.626;2022-09-09T06:21:06;15.00;99.90
40291;DHT22;26000;48.304;13.626;2022-09-09T06:23:33;15.10;99.90
40291;DHT22;26000;48.304;13.626;2022-09-09T06:26:06;15.10;99.90
40291;DHT22;26000;48.304;13.626;2022-09-09T06:28:34;15.10;99.90
40291;DHT22;26000;48.304;13.626;2022-09-09T06:31:05;15.10;99.90
40291;DHT22;26000;48.304;13.626;2022-09-09T06:33:33;15.20;99.90
40291;DHT22;26000;48.304;13.626;2022-09-09T06:36:01;15.20;99.90
40291;DHT22;26000;48.304;13.626;2022-09-09T06:38:27;15.20;99.90
40291;DHT22;26000;48.304;13.626;2022-09-09T06:40:54;15.20;99.90
40291;DHT22;26000;48.304;13.626;2022-09-09T06:43:22;15.30;99.90
40291;DHT22;26000;48.304;13.626;2022-09-09T06:45:59;15.50;99.90
40291;DHT22;26000;48.304;13.626;2022-09-09T06:48:25;15.50;99.90
40291;DHT22;26000;48.304;13.626;2022-09-09T06:51:00;15.60;99.90
40291;DHT22;26000;48.304;13.626;2022-09-09T06:53:27;15.60;99.90
40291;DHT22;26000;48.304;13.626;2022-09-09T06:55:52;15.60;99.90
40291;DHT22;26000;48.304;13.626;2022-09-09T06:58:18;15.60;99.90
40291;DHT22;26000;48.304;13.626;2022-09-09T07:00:44;15.60;99.90
40291;DHT22;26000;48.304;13.626;2022-09-09T07:03:10;15.60;99.90
40291;DHT22;26000;48.304;13.626;2022-09-09T07:05:36;15.60;99.90
40291;DHT22;26000;48.304;13.626;2022-09-09T07:08:02;15.50;99.90
40291;DHT22;26000;48.304;13.626;2022-09-09T07:10:28;15.50;99.90
40291;DHT22;26000;48.304;13.626;2022-09-09T07:12:53;15.40;99.90
40291;DHT22;26000;48.304;13.626;2022-09-09T07:15:20;15.40;99.90
40291;DHT22;26000;48.304;13.626;2022-09-09T07:17:46;15.40;99.90
40291;DHT22;26000;48.304;13.626;2022-09-09T07:20:13;15.30;99.90
40291;DHT22;26000;48.304;13.626;2022-09-09T07:22:40;15.30;99.90
40291;DHT22;26000;48.304;13.626;2022-09-09T07:25:06;15.30;99.90
40291;DHT22;26000;48.304;13.626;2022-09-09T07:27:32;15.30;99.90
40291;DHT22;26000;48.304;13.626;2022-09-09T07:29:57;15.30;99.90
40291;DHT22;26000;48.304;13.626;2022-09-09T07:32:23;15.40;99.90
40291;DHT22;26000;48.304;13.626;2022-09-09T07:34:51;15.40;99.90
40291;DHT22;26000;48.304;13.626;2022-09-09T07:37:17;15.50;99.90
40291;DHT22;26000;48.304;13.626;2022-09-09T07:39:43;15.50;99.90
40291;DHT22;26000;48.304;13.626;2022-09-09T07:42:09;15.40;99.90
40291;DHT22;26000;48.304;13.626;2022-09-09T07:44:37;15.40;99.90
40291;DHT22;26000;48.304;13.626;2022-09-09T07:47:05;15.40;99.90
40291;DHT22;26000;48.304;13.626;2022-09-09T07:49:31;15.40;99.90
40291;DHT22;26000;48.304;13.626;2022-09-09T07:51:58;15.40;99.90
40291;DHT22;26000;48.304;13.626;2022-09-09T07:54:24;15.40;99.90
40291;DHT22;26000;48.304;13.626;2022-09-09T07:56:52;15.30;99.90
40291;DHT22;26000;48.304;13.626;2022-09-09T07:59:18;15.30;99.90
40291;DHT22;26000;48.304;13.626;2022-09-09T08:01:49;15.30;99.90
40291;DHT22;26000;48.304;13.626;2022-09-09T08:04:19;15.30;99.90
40291;DHT22;26000;48.304;13.626;2022-09-09T08:06:51;15.30;99.90
40291;DHT22;26000;48.304;13.626;2022-09-09T08:09:18;15.40;99.90
40291;DHT22;26000;48.304;13.626;2022-09-09T08:11:44;15.50;99.90
40291;DHT22;26000;48.304;13.626;2022-09-09T08:14:10;15.50;99.90
40291;DHT22;26000;48.304;13.626;2022-09-09T08:16:40;15.50;99.90
40291;DHT22;26000;48.304;13.626;2022-09-09T08:19:06;15.40;99.90
40291;DHT22;26000;48.304;13.626;2022-09-09T08:21:33;15.40;99.90
40291;DHT22;26000;48.304;13.626;2022-09-09T08:24:02;15.40;99.90
40291;DHT22;26000;48.304;13.626;2022-09-09T08:26:30;15.40;99.90
40291;DHT22;26000;48.304;13.626;2022-09-09T08:28:58;15.40;99.90
40291;DHT22;26000;48.304;13.626;2022-09-09T08:31:29;15.40;99.90
40291;DHT22;26000;48.304;13.626;2022-09-09T08:33:57;15.40;99.90
40291;DHT22;26000;48.304;13.626;2022-09-09T08:36:26;15.50;99.90
40291;DHT22;26000;48.304;13.626;2022-09-09T08:38:54;15.50;99.90
40291;DHT22;26000;48.304;13.626;2022-09-09T08:41:35;15.60;99.90
40291;DHT22;26000;48.304;13.626;2022-09-09T08:51:57;15.90;99.90
40291;DHT22;26000;48.304;13.626;2022-09-09T08:54:23;15.90;99.90
40291;DHT22;26000;48.304;13.626;2022-09-09T08:56:51;15.90;99.90
40291;DHT22;26000;48.304;13.626;2022-09-09T08:59:18;15.90;99.90
40291;DHT22;26000;48.304;13.626;2022-09-09T09:02:15;15.90;99.90
40291;DHT22;26000;48.304;13.626;2022-09-09T09:04:56;16.00;99.90
40291;DHT22;26000;48.304;13.626;2022-09-09T09:12:49;16.00;99.90
40291;DHT22;26000;48.304;13.626;2022-09-09T09:15:22;15.90;99.90
40291;DHT22;26000;48.304;13.626;2022-09-09T09:17:48;15.90;99.90
40291;DHT22;26000;48.304;13.626;2022-09-09T09:20:16;16.00;99.90
40291;DHT22;26000;48.304;13.626;2022-09-09T09:22:48;16.00;99.90
40291;DHT22;26000;48.304;13.626;2022-09-09T09:25:21;16.00;99.90
40291;DHT22;26000;48.304;13.626;2022-09-09T09:28:02;15.90;99.90
40291;DHT22;26000;48.304;13.626;2022-09-09T09:30:56;15.90;99.90
40291;DHT22;26000;48.304;13.626;2022-09-09T09:36:01;15.80;99.90
40291;DHT22;26000;48.304;13.626;2022-09-09T09:38:29;15.60;99.90
40291;DHT22;26000;48.304;13.626;2022-09-09T09:40:57;15.70;99.90
40291;DHT22;26000;48.304;13.626;2022-09-09T09:43:31;15.70;99.90
40291;DHT22;26000;48.304;13.626;2022-09-09T09:45:58;15.70;99.90
40291;DHT22;26000;48.304;13.626;2022-09-09T09:48:24;15.70;99.90
40291;DHT22;26000;48.304;13.626;2022-09-09T09:50:56;15.80;99.90
40291;DHT22;26000;48.304;13.626;2022-09-09T09:53:26;15.90;99.90
40291;DHT22;26000;48.304;13.626;2022-09-09T09:58:30;16.00;99.90
40291;DHT22;26000;48.304;13.626;2022-09-09T10:01:00;16.10;99.90
40291;DHT22;26000;48.304;13.626;2022-09-09T10:03:33;15.90;99.90
40291;DHT22;26000;48.304;13.626;2022-09-09T10:06:03;16.00;99.90
40291;DHT22;26000;48.304;13.626;2022-09-09T10:08:29;16.00;99.90
40291;DHT22;26000;48.304;13.626;2022-09-09T10:11:43;16.10;99.90
40291;DHT22;26000;48.304;13.626;2022-09-09T10:14:22;16.10;99.90
40291;DHT22;26000;48.304;13.626;2022-09-09T10:19:49;16.20;99.90
40291;DHT22;26000;48.304;13.626;2022-09-09T10:30:47;16.30;99.90
40291;DHT22;26000;48.304;13.626;2022-09-09T10:33:28;16.30;99.90
40291;DHT22;26000;48.304;13.626;2022-09-09T10:36:14;16.40;99.90
40291;DHT22;26000;48.304;13.626;2022-09-09T10:38:52;16.40;99.90
40291;DHT22;26000;48.304;13.626;2022-09-09T10:44:17;16.40;99.90
40291;DHT22;26000;48.304;13.626;2022-09-09T10:49:48;16.40;99.90
40291;DHT22;26000;48.304;13.626;2022-09-09T10:55:17;16.40;99.90
40291;DHT22;26000;48.304;13.626;2022-09-09T10:57:45;16.50;99.90
40291;DHT22;26000;48.304;13.626;2022-09-09T11:03:09;16.50;99.90
40291;DHT22;26000;48.304;13.626;2022-09-09T11:08:29;16.60;99.90
40291;DHT22;26000;48.304;13.626;2022-09-09T11:11:07;16.60;99.90
40291;DHT22;26000;48.304;13.626;2022-09-09T11:16:39;16.70;99.90
40291;DHT22;26000;48.304;13.626;2022-09-09T11:19:17;16.70;99.90
40291;DHT22;26000;48.304;13.626;2022-09-09T11:21:47;16.80;99.90
40291;DHT22;26000;48.304;13.626;2022-09-09T11:24:23;16.90;99.90
40291;DHT22;26000;48.304;13.626;2022-09-09T11:26:57;17.00;99.90
40291;DHT22;26000;48.304;13.626;2022-09-09T11:32:43;17.00;99.90
40291;DHT22;26000;48.304;13.626;2022-09-09T11:35:33;17.00;99.90
40291;DHT22;26000;48.304;13.626;2022-09-09T11:38:14;17.00;99.90
40291;DHT22;26000;48.304;13.626;2022-09-09T11:40:41;16.90;99.90
40291;DHT22;26000;48.304;13.626;2022-09-09T11:46:08;16.90;99.90
40291;DHT22;26000;48.304;13.626;2022-09-09T11:51:12;16.90;99.90
40291;DHT22;26000;48.304;13.626;2022-09-09T11:53:58;16.80;99.90
40291;DHT22;26000;48.304;13.626;2022-09-09T11:56:41;16.70;99.90
40291;DHT22;26000;48.304;13.626;2022-09-09T12:01:50;16.60;99.90
40291;DHT22;26000;48.304;13.626;2022-09-09T12:14:55;16.80;99.90
40291;DHT22;26000;48.304;13.626;2022-09-09T12:17:26;16.70;99.90
40291;DHT22;26000;48.304;13.626;2022-09-09T12:28:11;16.90;99.90
40291;DHT22;26000;48.304;13.626;2022-09-09T12:30:49;17.00;99.90
40291;DHT22;26000;48.304;13.626;2022-09-09T12:33:18;17.00;99.90
40291;DHT22;26000;48.304;13.626;2022-09-09T12:35:50;17.10;99.90
40291;DHT22;26000;48.304;13.626;2022-09-09T12:38:36;17.10;99.90
40291;DHT22;26000;48.304;13.626;2022-09-09T12:41:02;17.20;99.90
40291;DHT22;26000;48.304;13.626;2022-09-09T12:43:28;17.30;99.90
40291;DHT22;26000;48.304;13.626;2022-09-09T12:46:00;17.30;99.90
40291;DHT22;26000;48.304;13.626;2022-09-09T12:48:35;17.30;99.90
40291;DHT22;26000;48.304;13.626;2022-09-09T12:51:02;17.40;99.90
40291;DHT22;26000;48.304;13.626;2022-09-09T12:53:36;17.30;99.90
40291;DHT22;26000;48.304;13.626;2022-09-09T12:56:05;17.30;99.90
40291;DHT22;26000;48.304;13.626;2022-09-09T12:58:33;17.30;99.90
40291;DHT22;26000;48.304;13.626;2022-09-09T13:01:01;17.30;99.90
40291;DHT22;26000;48.304;13.626;2022-09-09T13:03:28;17.30;99.90
40291;DHT22;26000;48.304;13.626;2022-09-09T13:05:58;17.40;99.90
40291;DHT22;26000;48.304;13.626;2022-09-09T13:08:25;17.40;99.90
40291;DHT22;26000;48.304;13.626;2022-09-09T13:11:00;17.40;99.90
40291;DHT22;26000;48.304;13.626;2022-09-09T13:13:37;17.40;99.90
40291;DHT22;26000;48.304;13.626;2022-09-09T13:16:06;17.40;99.90
40291;DHT22;26000;48.304;13.626;2022-09-09T13:18:40;17.40;99.90
40291;DHT22;26000;48.304;13.626;2022-09-09T13:21:06;17.30;99.90
40291;DHT22;26000;48.304;13.626;2022-09-09T13:23:37;17.30;99.90
40291;DHT22;26000;48.304;13.626;2022-09-09T13:26:06;17.30;99.90
40291;DHT22;26000;48.304;13.626;2022-09-09T13:28:33;17.40;99.90
40291;DHT22;26000;48.304;13.626;2022-09-09T13:35:58;17.50;99.90
40291;DHT22;26000;48.304;13.626;2022-09-09T13:38:25;17.50;99.90
40291;DHT22;26000;48.304;13.626;2022-09-09T13:41:18;17.60;99.90
40291;DHT22;26000;48.304;13.626;2022-09-09T13:43:45;17.60;99.90
40291;DHT22;26000;48.304;13.626;2022-09-09T13:48:58;17.60;99.90
40291;DHT22;26000;48.304;13.626;2022-09-09T13:53:56;17.60;99.90
40291;DHT22;26000;48.304;13.626;2022-09-09T13:56:23;17.70;99.90
40291;DHT22;26000;48.304;13.626;2022-09-09T13:58:48;17.70;99.90
40291;DHT22;26000;48.304;13.626;2022-09-09T14:01:14;17.70;99.90
40291;DHT22;26000;48.304;13.626;2022-09-09T14:03:39;17.70;99.90
40291;DHT22;26000;48.304;13.626;2022-09-09T14:06:05;17.70;99.90
40291;DHT22;26000;48.304;13.626;2022-09-09T14:08:32;17.80;99.90
40291;DHT22;26000;48.304;13.626;2022-09-09T14:11:03;17.70;99.90
40291;DHT22;26000;48.304;13.626;2022-09-09T14:13:28;17.70;99.90
40291;DHT22;26000;48.304;13.626;2022-09-09T14:15:54;17.70;99.90
40291;DHT22;26000;48.304;13.626;2022-09-09T14:18:20;17.60;99.90
40291;DHT22;26000;48.304;13.626;2022-09-09T14:20:47;17.70;99.90
40291;DHT22;26000;48.304;13.626;2022-09-09T14:23:13;17.70;99.90
40291;DHT22;26000;48.304;13.626;2022-09-09T14:25:43;17.70;99.90
40291;DHT22;26000;48.304;13.626;2022-09-09T14:28:10;17.70;99.90
40291;DHT22;26000;48.304;13.626;2022-09-09T14:30:38;17.70;99.90
40291;DHT22;26000;48.304;13.626;2022-09-09T14:33:04;17.70;99.90
40291;DHT22;26000;48.304;13.626;2022-09-09T14:35:30;17.70;99.90
40291;DHT22;26000;48.304;13.626;2022-09-09T14:37:55;17.70;99.90
40291;DHT22;26000;48.304;13.626;2022-09-09T14:40:21;17.80;99.90
40291;DHT22;26000;48.304;13.626;2022-09-09T14:42:47;17.80;99.90
40291;DHT22;26000;48.304;13.626;2022-09-09T14:45:13;17.70;99.90
40291;DHT22;26000;48.304;13.626;2022-09-09T14:47:38;17.70;99.90
40291;DHT22;26000;48.304;13.626;2022-09-09T14:50:05;17.60;99.90
40291;DHT22;26000;48.304;13.626;2022-09-09T14:52:31;17.60;99.90
40291;DHT22;26000;48.304;13.626;2022-09-09T14:54:57;17.60;99.90
40291;DHT22;26000;48.304;13.626;2022-09-09T14:57:22;17.70;99.90
40291;DHT22;26000;48.304;13.626;2022-09-09T14:59:48;17.70;99.90
40291;DHT22;26000;48.304;13.626;2022-09-09T15:02:15;17.70;99.90
40291;DHT22;26000;48.304;13.626;2022-09-09T15:04:41;17.70;99.90
40291;DHT22;26000;48.304;13.626;2022-09-09T15:07:07;17.70;99.90
40291;DHT22;26000;48.304;13.626;2022-09-09T15:09:33;17.80;99.90
40291;DHT22;26000;48.304;13.626;2022-09-09T15:11:58;17.80;99.90
40291;DHT22;26000;48.304;13.626;2022-09-09T15:14:25;17.80;99.90
40291;DHT22;26000;48.304;13.626;2022-09-09T15:16:51;17.90;99.90
40291;DHT22;26000;48.304;13.626;2022-09-09T15:19:17;17.90;99.90
40291;DHT22;26000;48.304;13.626;2022-09-09T15:21:42;17.90;99.90
40291;DHT22;26000;48.304;13.626;2022-09-09T15:24:08;17.90;99.90
40291;DHT22;26000;48.304;13.626;2022-09-09T15:26:33;17.90;99.90
40291;DHT22;26000;48.304;13.626;2022-09-09T15:28:59;17.90;99.90
40291;DHT22;26000;48.304;13.626;2022-09-09T15:31:27;18.00;99.90
40291;DHT22;26000;48.304;13.626;2022-09-09T15:34:00;18.10;99.90
40291;DHT22;26000;48.304;13.626;2022-09-09T15:36:37;18.10;99.90
40291;DHT22;26000;48.304;13.626;2022-09-09T15:39:06;18.20;99.90
40291;DHT22;26000;48.304;13.626;2022-09-09T15:41:33;18.20;99.90
40291;DHT22;26000;48.304;13.626;2022-09-09T15:43:59;18.20;99.90
40291;DHT22;26000;48.304;13.626;2022-09-09T15:51:29;18.30;99.90
40291;DHT22;26000;48.304;13.626;2022-09-09T15:53:59;18.30;99.90
40291;DHT22;26000;48.304;13.626;2022-09-09T15:56:28;18.40;99.90
40291;DHT22;26000;48.304;13.626;2022-09-09T15:58:58;18.30;99.90
40291;DHT22;26000;48.304;13.626;2022-09-09T16:01:26;18.30;99.90
40291;DHT22;26000;48.304;13.626;2022-09-09T16:03:52;18.40;99.90
40291;DHT22;26000;48.304;13.626;2022-09-09T16:06:20;18.50;99.90
40291;DHT22;26000;48.304;13.626;2022-09-09T16:08:48;18.50;99.90
40291;DHT22;26000;48.304;13.626;2022-09-09T16:11:27;18.50;99.90
40291;DHT22;26000;48.304;13.626;2022-09-09T16:13:53;18.60;99.90
40291;DHT22;26000;48.304;13.626;2022-09-09T16:16:22;18.60;99.90
40291;DHT22;26000;48.304;13.626;2022-09-09T16:19:00;18.60;99.90
40291;DHT22;26000;48.304;13.626;2022-09-09T16:21:33;18.60;99.90
40291;DHT22;26000;48.304;13.626;2022-09-09T16:24:00;18.50;99.90
40291;DHT22;26000;48.304;13.626;2022-09-09T16:26:28;18.40;99.90
40291;DHT22;26000;48.304;13.626;2022-09-09T16:28:53;18.30;99.90
40291;DHT22;26000;48.304;13.626;2022-09-09T16:31:27;18.30;99.90
40291;DHT22;26000;48.304;13.626;2022-09-09T16:33:53;18.20;99.90
40291;DHT22;26000;48.304;13.626;2022-09-09T16:36:21;18.20;99.90
40291;DHT22;26000;48.304;13.626;2022-09-09T16:38:48;18.20;99.90
40291;DHT22;26000;48.304;13.626;2022-09-09T16:41:16;18.10;99.90
40291;DHT22;26000;48.304;13.626;2022-09-09T16:43:42;18.10;99.90
40291;DHT22;26000;48.304;13.626;2022-09-09T16:48:39;18.10;99.90
40291;DHT22;26000;48.304;13.626;2022-09-09T16:51:06;18.00;99.90
40291;DHT22;26000;48.304;13.626;2022-09-09T16:53:33;18.00;99.90
40291;DHT22;26000;48.304;13.626;2022-09-09T16:56:07;18.00;99.90
40291;DHT22;26000;48.304;13.626;2022-09-09T16:58:34;17.90;99.90
40291;DHT22;26000;48.304;13.626;2022-09-09T17:01:04;17.90;99.90
40291;DHT22;26000;48.304;13.626;2022-09-09T17:03:30;17.80;99.90
40291;DHT22;26000;48.304;13.626;2022-09-09T17:05:57;17.80;99.90
40291;DHT22;26000;48.304;13.626;2022-09-09T17:08:24;17.70;99.90
40291;DHT22;26000;48.304;13.626;2022-09-09T17:10:49;17.70;99.90
40291;DHT22;26000;48.304;13.626;2022-09-09T17:13:15;17.70;99.90
40291;DHT22;26000;48.304;13.626;2022-09-09T17:15:43;17.70;99.90
40291;DHT22;26000;48.304;13.626;2022-09-09T17:18:11;17.60;99.90
40291;DHT22;26000;48.304;13.626;2022-09-09T17:20:38;17.60;99.90
40291;DHT22;26000;48.304;13.626;2022-09-09T17:23:06;17.50;99.90
40291;DHT22;26000;48.304;13.626;2022-09-09T17:25:31;17.40;99.90
40291;DHT22;26000;48.304;13.626;2022-09-09T17:27:58;17.40;99.90
40291;DHT22;26000;48.304;13.626;2022-09-09T17:30:24;17.30;99.90
40291;DHT22;26000;48.304;13.626;2022-09-09T17:32:49;17.30;99.90
40291;DHT22;26000;48.304;13.626;2022-09-09T17:35:15;17.30;99.90
40291;DHT22;26000;48.304;13.626;2022-09-09T17:37:41;17.30;99.90
40291;DHT22;26000;48.304;13.626;2022-09-09T17:40:07;17.20;99.90
40291;DHT22;26000;48.304;13.626;2022-09-09T17:42:33;17.20;99.90
40291;DHT22;26000;48.304;13.626;2022-09-09T17:44:59;17.20;99.90
40291;DHT22;26000;48.304;13.626;2022-09-09T17:47:25;17.10;99.90